createdAt,value
2017-08-26T00:02:02.129Z,12.10
2017-08-26T00:04:29.703Z,13.10
2017-08-26T00:06:57.304Z,13.80
2017-08-26T00:09:24.873Z,14.50
2017-08-26T00:11:52.421Z,13.93
2017-08-26T00:14:20.022Z,12.53
2017-08-26T00:16:47.611Z,10.70
2017-08-26T00:19:15.182Z,14.30
2017-08-26T00:21:42.769Z,13.40
2017-08-26T00:24:10.466Z,12.77
2017-08-26T00:26:38.057Z,11.47
2017-08-26T00:29:05.658Z,12.20
2017-08-26T00:31:33.241Z,10.10
2017-08-26T00:34:00.818Z,12.70
2017-08-26T00:36:28.389Z,13.30
2017-08-26T00:38:56.379Z,15.23
2017-08-26T00:41:24.018Z,13.20
2017-08-26T00:43:51.591Z,11.27
2017-08-26T00:46:19.170Z,12.83
2017-08-26T00:48:46.822Z,12.83
2017-08-26T00:51:14.382Z,10.27
2017-08-26T00:53:41.962Z,17.90
2017-08-26T00:56:09.753Z,14.20
2017-08-26T00:58:37.345Z,14.00
2017-08-26T01:01:04.923Z,14.13
2017-08-26T01:03:32.537Z,17.50
2017-08-26T01:06:00.128Z,13.20
2017-08-26T01:08:28.457Z,13.00
2017-08-26T01:10:56.058Z,18.10
2017-08-26T01:13:23.617Z,14.27
2017-08-26T01:15:51.172Z,14.63
2017-08-26T01:18:18.747Z,13.33
2017-08-26T01:20:46.542Z,11.50
2017-08-26T01:23:14.150Z,10.60
2017-08-26T01:25:41.749Z,12.63
2017-08-26T01:28:09.320Z,11.10
2017-08-26T01:30:36.878Z,11.40
2017-08-26T01:33:04.478Z,11.23
2017-08-26T01:35:32.044Z,10.00
2017-08-26T01:37:59.620Z,17.70
2017-08-26T01:40:27.217Z,10.40
2017-08-26T01:42:54.783Z,13.03
2017-08-26T01:45:22.355Z,13.93
2017-08-26T01:47:49.915Z,10.50
2017-08-26T01:50:17.511Z,11.70
2017-08-26T01:52:45.074Z,9.63
2017-08-26T01:55:12.657Z,10.80
2017-08-26T01:57:41.010Z,17.13
2017-08-26T02:00:08.590Z,13.43
2017-08-26T02:02:36.229Z,12.20
2017-08-26T02:05:03.798Z,16.50
2017-08-26T02:07:31.358Z,13.47
2017-08-26T02:09:58.929Z,14.73
2017-08-26T02:12:26.505Z,11.70
2017-08-26T02:14:54.177Z,17.17
2017-08-26T02:17:21.713Z,13.37
2017-08-26T02:19:49.281Z,16.93
2017-08-26T02:22:16.840Z,14.97
2017-08-26T02:24:44.414Z,11.53
2017-08-26T02:27:11.968Z,12.23
2017-08-26T02:29:39.546Z,15.10
2017-08-26T02:32:07.113Z,16.53
2017-08-26T02:34:34.689Z,11.47
2017-08-26T02:37:02.260Z,13.53
2017-08-26T02:39:29.825Z,10.60
2017-08-26T02:41:57.395Z,11.00
2017-08-26T02:44:24.989Z,11.27
2017-08-26T02:46:52.549Z,11.43
2017-08-26T02:49:20.892Z,11.20
2017-08-26T02:51:48.449Z,12.57
2017-08-26T02:54:16.038Z,11.73
2017-08-26T02:56:43.593Z,14.10
2017-08-26T02:59:11.186Z,11.13
2017-08-26T03:01:38.738Z,10.70
2017-08-26T03:04:06.362Z,11.10
2017-08-26T03:06:33.938Z,13.60
2017-08-26T03:09:01.497Z,13.73
2017-08-26T03:11:29.054Z,16.23
2017-08-26T03:13:56.611Z,13.93
2017-08-26T03:16:24.183Z,11.20
2017-08-26T03:18:52.511Z,14.50
2017-08-26T03:21:20.198Z,10.97
2017-08-26T03:23:47.777Z,14.30
2017-08-26T03:26:15.369Z,16.63
2017-08-26T03:28:42.952Z,16.73
2017-08-26T03:31:10.519Z,13.80
2017-08-26T03:33:38.126Z,15.70
2017-08-26T03:36:05.694Z,15.10
2017-08-26T03:38:33.250Z,15.40
2017-08-26T03:41:00.854Z,12.40
2017-08-26T03:43:28.429Z,13.87
2017-08-26T03:45:56.013Z,16.50
2017-08-26T03:48:23.602Z,12.80
2017-08-26T03:50:51.176Z,13.80
2017-08-26T03:53:18.778Z,16.30
2017-08-26T03:55:46.335Z,13.80
2017-08-26T03:58:13.901Z,10.97
2017-08-26T04:00:41.486Z,11.43
2017-08-26T04:03:09.057Z,15.40
2017-08-26T04:05:36.628Z,12.73
2017-08-26T04:08:04.282Z,13.43
2017-08-26T04:10:31.861Z,13.60
2017-08-26T04:12:59.422Z,14.03
2017-08-26T04:15:27.023Z,13.13
2017-08-26T04:17:54.577Z,13.30
2017-08-26T04:20:22.130Z,13.93
2017-08-26T04:22:49.701Z,13.43
2017-08-26T04:25:17.266Z,14.73
2017-08-26T04:27:44.846Z,13.53
2017-08-26T04:30:12.474Z,11.97
2017-08-26T04:32:40.058Z,20.43
2017-08-26T04:35:07.674Z,13.60
2017-08-26T04:37:35.262Z,14.30
2017-08-26T04:40:02.839Z,16.60
2017-08-26T04:42:30.409Z,13.53
2017-08-26T04:44:58.109Z,11.90
2017-08-26T04:47:25.677Z,14.37
2017-08-26T04:49:53.235Z,11.73
2017-08-26T04:52:20.810Z,11.17
2017-08-26T04:54:49.129Z,12.13
2017-08-26T04:57:16.719Z,13.73
2017-08-26T04:59:44.278Z,12.93
2017-08-26T05:02:11.865Z,10.97
2017-08-26T05:04:39.421Z,12.70
2017-08-26T05:07:07.013Z,15.20
2017-08-26T05:09:34.681Z,15.60
2017-08-26T05:12:02.253Z,13.83
2017-08-26T05:14:29.845Z,11.33
2017-08-26T05:16:57.445Z,15.67
2017-08-26T05:19:25.032Z,14.30
2017-08-26T05:21:52.594Z,17.83
2017-08-26T05:24:20.225Z,10.50
2017-08-26T05:26:47.793Z,13.40
2017-08-26T05:29:15.381Z,16.77
2017-08-26T05:31:42.937Z,14.33
2017-08-26T05:34:10.530Z,13.73
2017-08-26T05:36:38.310Z,17.30
2017-08-26T05:39:05.916Z,15.00
2017-08-26T05:41:33.586Z,15.40
2017-08-26T05:44:01.162Z,13.00
2017-08-26T05:46:28.762Z,15.50
2017-08-26T05:48:56.328Z,15.13
2017-08-26T05:51:23.905Z,15.20
2017-08-26T05:53:51.473Z,16.33
2017-08-26T05:56:19.049Z,16.67
2017-08-26T05:58:46.650Z,18.90
2017-08-26T06:01:14.282Z,19.67
2017-08-26T06:03:41.862Z,16.17
2017-08-26T06:06:09.448Z,44.27
2017-08-26T06:08:37.110Z,20.13
2017-08-26T06:11:04.687Z,15.97
2017-08-26T06:13:32.291Z,25.87
2017-08-26T06:15:59.881Z,16.77
2017-08-26T06:18:27.454Z,17.43
2017-08-26T06:20:55.074Z,15.13
2017-08-26T06:23:22.646Z,23.73
2017-08-26T06:25:50.226Z,20.17
2017-08-26T06:28:17.801Z,17.83
2017-08-26T06:30:45.423Z,18.03
2017-08-26T06:33:13.062Z,18.10
2017-08-26T06:35:40.631Z,13.53
2017-08-26T06:38:08.228Z,11.90
2017-08-26T06:40:35.796Z,11.83
2017-08-26T06:43:03.370Z,13.20
2017-08-26T06:45:30.937Z,9.87
2017-08-26T06:47:58.528Z,11.20
2017-08-26T06:50:26.106Z,11.50
2017-08-26T06:52:53.677Z,9.43
2017-08-26T06:55:21.281Z,11.07
2017-08-26T06:57:48.922Z,10.47
2017-08-26T07:00:16.486Z,10.10
2017-08-26T07:02:44.062Z,9.83
2017-08-26T07:05:11.630Z,9.83
2017-08-26T07:07:39.194Z,8.10
2017-08-26T07:10:06.774Z,8.47
2017-08-26T07:12:35.095Z,8.43
2017-08-26T07:15:02.850Z,9.03
2017-08-26T07:17:30.432Z,7.80
2017-08-26T07:19:58.024Z,9.40
2017-08-26T07:22:25.590Z,9.73
2017-08-26T07:24:53.161Z,13.90
2017-08-26T07:27:20.758Z,8.07
2017-08-26T07:29:48.315Z,7.43
2017-08-26T07:32:15.877Z,6.80
2017-08-26T07:34:43.454Z,5.87
2017-08-26T07:37:11.071Z,6.40
2017-08-26T07:39:38.626Z,6.93
2017-08-26T07:42:06.202Z,6.10
2017-08-26T07:44:33.773Z,6.90
2017-08-26T07:47:01.337Z,5.00
2017-08-26T07:49:28.935Z,5.90
2017-08-26T07:51:56.494Z,4.27
2017-08-26T07:54:24.139Z,4.93
2017-08-26T07:56:51.722Z,4.90
2017-08-26T07:59:19.335Z,8.33
2017-08-26T08:01:46.919Z,6.40
2017-08-26T08:04:14.485Z,8.80
2017-08-26T08:06:42.058Z,6.17
2017-08-26T08:09:09.629Z,5.57
2017-08-26T08:11:37.178Z,9.87
2017-08-26T08:14:04.762Z,8.80
2017-08-26T08:16:32.320Z,7.63
2017-08-26T08:18:59.904Z,8.53
2017-08-26T08:21:27.476Z,6.37
2017-08-26T08:23:55.065Z,6.30
2017-08-26T08:26:22.633Z,6.63
2017-08-26T08:28:50.197Z,5.80
2017-08-26T08:31:17.762Z,5.97
2017-08-26T08:33:45.346Z,5.93
2017-08-26T08:36:12.926Z,6.00
2017-08-26T08:38:40.482Z,7.70
2017-08-26T08:41:08.841Z,6.10
2017-08-26T08:43:36.406Z,5.23
2017-08-26T08:46:03.986Z,5.63
2017-08-26T08:48:31.569Z,5.50
2017-08-26T08:50:59.138Z,8.23
2017-08-26T08:53:26.702Z,6.00
2017-08-26T08:55:54.262Z,6.00
2017-08-26T08:58:21.890Z,5.87
2017-08-26T09:00:49.450Z,7.17
2017-08-26T09:03:17.029Z,5.50
2017-08-26T09:05:44.629Z,6.07
2017-08-26T09:08:12.193Z,5.83
2017-08-26T09:10:39.776Z,6.20
2017-08-26T09:13:07.297Z,8.17
2017-08-26T09:15:34.867Z,6.67
2017-08-26T09:18:02.426Z,6.20
2017-08-26T09:20:30.004Z,6.00
2017-08-26T09:22:57.611Z,7.77
2017-08-26T09:25:25.234Z,5.50
2017-08-26T09:27:52.782Z,7.40
2017-08-26T09:30:20.391Z,5.63
2017-08-26T09:32:47.946Z,5.97
2017-08-26T09:35:15.521Z,6.10
2017-08-26T09:37:43.076Z,5.97
2017-08-26T09:40:10.674Z,6.50
2017-08-26T09:42:38.228Z,6.10
2017-08-26T09:45:05.804Z,7.70
2017-08-26T09:47:33.382Z,7.80
2017-08-26T09:50:00.999Z,6.40
2017-08-26T09:52:28.593Z,7.63
2017-08-26T09:54:56.158Z,6.90
2017-08-26T09:57:23.716Z,5.90
2017-08-26T09:59:51.332Z,6.23
2017-08-26T10:02:20.459Z,6.10
2017-08-26T10:04:50.565Z,6.43
2017-08-26T10:07:18.224Z,6.67
2017-08-26T10:09:45.770Z,9.00
2017-08-26T10:12:13.485Z,7.30
2017-08-26T10:14:41.065Z,10.60
2017-08-26T10:17:08.627Z,8.40
2017-08-26T10:19:36.218Z,6.73
2017-08-26T10:22:03.883Z,6.43
2017-08-26T10:24:31.445Z,8.27
2017-08-26T10:26:59.031Z,9.23
2017-08-26T10:29:26.590Z,7.33
2017-08-26T10:31:54.155Z,8.37
2017-08-26T10:34:21.735Z,8.50
2017-08-26T10:36:49.306Z,8.80
2017-08-26T10:39:16.873Z,9.13
2017-08-26T10:41:44.427Z,12.00
2017-08-26T10:44:11.988Z,10.20
2017-08-26T10:46:39.575Z,9.67
2017-08-26T10:49:07.154Z,12.03
2017-08-26T10:51:34.755Z,12.90
2017-08-26T10:54:02.300Z,10.50
2017-08-26T10:56:29.885Z,9.30
2017-08-26T10:58:57.470Z,10.27
2017-08-26T11:01:25.106Z,11.23
2017-08-26T11:03:52.693Z,11.10
2017-08-26T11:06:21.044Z,14.17
2017-08-26T11:08:48.753Z,10.03
2017-08-26T11:11:16.346Z,13.20
2017-08-26T11:13:43.912Z,12.37
2017-08-26T11:16:12.416Z,9.80
2017-08-26T11:18:39.965Z,11.27
2017-08-26T11:21:07.546Z,12.40
2017-08-26T11:23:35.147Z,13.40
2017-08-26T11:26:02.669Z,11.93
2017-08-26T11:28:30.259Z,10.20
2017-08-26T11:30:57.846Z,11.60
2017-08-26T11:33:25.413Z,9.17
2017-08-26T11:35:52.990Z,13.20
2017-08-26T11:38:20.602Z,15.87
2017-08-26T11:40:48.230Z,12.83
2017-08-26T11:43:15.794Z,12.60
2017-08-26T11:45:43.376Z,13.73
2017-08-26T11:48:10.956Z,16.07
2017-08-26T11:50:38.552Z,20.10
2017-08-26T11:53:06.144Z,15.80
2017-08-26T11:55:33.780Z,14.87
2017-08-26T11:58:01.342Z,17.63
2017-08-26T12:00:28.914Z,11.73
2017-08-26T12:02:56.513Z,15.73
2017-08-26T12:05:24.085Z,17.57
2017-08-26T12:07:51.644Z,14.90
2017-08-26T12:10:19.240Z,17.63
2017-08-26T12:12:46.826Z,14.20
2017-08-26T12:15:14.409Z,14.90
2017-08-26T12:17:42.006Z,15.77
2017-08-26T12:20:09.583Z,14.20
2017-08-26T12:22:37.167Z,16.90
2017-08-26T12:25:04.765Z,20.27
2017-08-26T12:27:33.110Z,16.33
2017-08-26T12:30:00.670Z,14.37
2017-08-26T12:32:28.250Z,15.70
2017-08-26T12:34:55.855Z,15.70
2017-08-26T12:37:23.426Z,13.33
2017-08-26T12:39:51.022Z,14.90
2017-08-26T12:42:18.622Z,18.10
2017-08-26T12:44:46.194Z,17.87
2017-08-26T12:47:13.770Z,14.20
2017-08-26T12:49:41.391Z,16.70
2017-08-26T12:52:08.974Z,19.57
2017-08-26T12:54:36.539Z,17.10
2017-08-26T12:57:04.142Z,16.60
2017-08-26T12:59:31.726Z,17.07
2017-08-26T13:01:59.299Z,22.47
2017-08-26T13:04:26.870Z,22.43
2017-08-26T13:06:54.457Z,22.90
2017-08-26T13:09:22.034Z,21.93
2017-08-26T13:11:49.846Z,23.77
2017-08-26T13:14:17.434Z,27.40
2017-08-26T13:16:45.069Z,27.43
2017-08-26T13:19:12.646Z,27.57
2017-08-26T13:21:40.220Z,25.40
2017-08-26T13:24:07.807Z,30.50
2017-08-26T13:26:35.386Z,30.00
2017-08-26T13:29:02.985Z,26.17
2017-08-26T13:31:30.585Z,25.00
2017-08-26T13:33:58.149Z,26.30
2017-08-26T13:36:25.749Z,24.20
2017-08-26T13:38:53.293Z,28.33
2017-08-26T13:41:20.899Z,32.50
2017-08-26T13:43:48.485Z,30.33
2017-08-26T13:46:16.062Z,29.57
2017-08-26T13:48:43.668Z,28.93
2017-08-26T13:51:12.023Z,25.80
2017-08-26T13:53:39.581Z,34.63
2017-08-26T13:56:07.150Z,31.10
2017-08-26T13:58:34.812Z,26.63
2017-08-26T14:01:02.378Z,30.73
2017-08-26T14:03:30.006Z,29.20
2017-08-26T14:05:57.580Z,28.27
2017-08-26T14:08:25.139Z,37.80
2017-08-26T14:10:52.717Z,32.07
2017-08-26T14:13:22.384Z,30.90
2017-08-26T14:15:49.966Z,33.83
2017-08-26T14:18:17.526Z,35.67
2017-08-26T14:20:45.106Z,32.30
2017-08-26T14:23:12.664Z,28.77
2017-08-26T14:25:40.245Z,30.60
2017-08-26T14:28:08.599Z,29.97
2017-08-26T14:30:36.167Z,36.90
2017-08-26T14:33:03.743Z,33.83
2017-08-26T14:35:31.318Z,36.37
2017-08-26T14:37:58.899Z,35.90
2017-08-26T14:40:26.457Z,31.50
2017-08-26T14:42:54.018Z,29.50
2017-08-26T14:45:21.597Z,32.60
2017-08-26T14:47:49.189Z,30.73
2017-08-26T14:50:16.794Z,30.50
2017-08-26T14:52:44.390Z,39.00
2017-08-26T14:55:11.955Z,29.37
2017-08-26T14:57:39.534Z,33.33
2017-08-26T15:00:07.101Z,38.00
2017-08-26T15:02:34.701Z,37.07
2017-08-26T15:05:02.317Z,33.10
2017-08-26T15:07:29.880Z,35.63
2017-08-26T15:09:57.465Z,33.80
2017-08-26T15:12:25.046Z,36.67
2017-08-26T15:14:52.631Z,32.07
2017-08-26T15:17:20.238Z,39.37
2017-08-26T15:19:47.818Z,35.30
2017-08-26T15:22:15.424Z,24.30
2017-08-26T15:24:42.991Z,26.13
2017-08-26T15:27:10.577Z,23.27
2017-08-26T15:29:38.153Z,21.97
2017-08-26T15:32:05.736Z,24.10
2017-08-26T15:34:33.318Z,23.80
2017-08-26T15:37:00.901Z,23.77
2017-08-26T15:39:28.480Z,24.83
2017-08-26T15:41:56.106Z,22.70
2017-08-26T15:44:23.693Z,22.23
2017-08-26T15:46:51.287Z,24.33
2017-08-26T15:49:18.869Z,26.23
2017-08-26T15:51:46.474Z,23.93
2017-08-26T15:54:14.038Z,21.40
2017-08-26T15:56:41.707Z,26.37
2017-08-26T15:59:09.298Z,27.13
2017-08-26T16:01:37.625Z,24.47
2017-08-26T16:04:05.228Z,28.17
2017-08-26T16:06:33.545Z,29.17
2017-08-26T16:09:01.118Z,77.13
2017-08-26T16:11:28.754Z,25.70
2017-08-26T16:13:56.364Z,28.53
2017-08-26T16:16:23.916Z,23.27
2017-08-26T16:18:51.498Z,27.50
2017-08-26T16:21:19.065Z,25.80
2017-08-26T16:23:46.634Z,28.90
2017-08-26T16:26:14.228Z,26.67
2017-08-26T16:28:41.797Z,24.53
2017-08-26T16:31:09.362Z,29.10
2017-08-26T16:33:36.982Z,31.13
2017-08-26T16:36:04.558Z,29.13
2017-08-26T16:38:32.882Z,28.10
2017-08-26T16:41:00.457Z,49.27
2017-08-26T16:43:28.065Z,37.00
2017-08-26T16:45:55.672Z,32.27
2017-08-26T16:48:23.341Z,30.30
2017-08-26T16:50:50.930Z,37.47
2017-08-26T16:53:18.533Z,33.20
2017-08-26T16:55:46.098Z,33.23
2017-08-26T16:58:13.761Z,31.83
2017-08-26T17:00:41.348Z,31.90
2017-08-26T17:03:08.921Z,30.57
2017-08-26T17:05:36.517Z,28.07
2017-08-26T17:08:04.101Z,22.40
2017-08-26T17:10:31.758Z,23.77
2017-08-26T17:12:59.403Z,21.57
2017-08-26T17:15:27.011Z,27.00
2017-08-26T17:17:54.597Z,25.23
2017-08-26T17:20:22.156Z,23.23
2017-08-26T17:22:49.730Z,22.13
2017-08-26T17:25:18.140Z,20.00
2017-08-26T17:27:45.697Z,16.23
2017-08-26T17:30:13.283Z,18.70
2017-08-26T17:32:40.893Z,17.50
2017-08-26T17:35:08.545Z,15.97
2017-08-26T17:37:36.127Z,18.30
2017-08-26T17:40:03.744Z,17.40
2017-08-26T17:42:31.310Z,16.47
2017-08-26T17:44:58.985Z,15.27
2017-08-26T17:47:26.542Z,18.83
2017-08-26T17:49:54.126Z,12.90
2017-08-26T17:52:22.475Z,17.70
2017-08-26T17:54:50.051Z,18.80
2017-08-26T17:57:17.614Z,16.90
2017-08-26T17:59:45.226Z,13.10
2017-08-26T18:02:12.788Z,15.37
2017-08-26T18:04:40.391Z,15.67
2017-08-26T18:07:07.959Z,15.43
2017-08-26T18:09:35.535Z,15.33
2017-08-26T18:12:03.203Z,18.20
2017-08-26T18:14:31.580Z,13.00
2017-08-26T18:16:59.171Z,20.10
2017-08-26T18:19:27.164Z,15.93
2017-08-26T18:21:54.746Z,19.57
2017-08-26T18:24:22.355Z,18.73
2017-08-26T18:26:49.934Z,16.47
2017-08-26T18:29:17.501Z,14.70
2017-08-26T18:31:45.087Z,18.60
2017-08-26T18:34:12.770Z,16.80
2017-08-26T18:36:40.321Z,13.33
2017-08-26T18:39:07.889Z,18.40
2017-08-26T18:41:36.233Z,24.73
2017-08-26T18:44:03.957Z,33.00
2017-08-26T18:46:31.552Z,41.63
2017-08-26T18:48:59.122Z,50.27
2017-08-26T18:51:26.768Z,43.33
2017-08-26T18:53:54.366Z,34.13
2017-08-26T18:56:22.041Z,25.33
2017-08-26T18:58:49.646Z,25.40
2017-08-26T19:01:17.213Z,21.13
2017-08-26T19:03:44.798Z,20.30
2017-08-26T19:06:12.425Z,19.57
2017-08-26T19:08:40.018Z,20.30
2017-08-26T19:11:07.606Z,17.80
2017-08-26T19:13:35.211Z,17.13
2017-08-26T19:16:04.104Z,18.60
2017-08-26T19:18:31.666Z,18.03
2017-08-26T19:20:59.247Z,17.43
2017-08-26T19:23:26.921Z,17.37
2017-08-26T19:25:54.490Z,15.90
2017-08-26T19:28:22.088Z,19.47
2017-08-26T19:30:50.458Z,21.13
2017-08-26T19:33:18.045Z,15.20
2017-08-26T19:35:45.772Z,16.90
2017-08-26T19:38:13.347Z,14.80
2017-08-26T19:40:41.676Z,16.27
2017-08-26T19:43:09.282Z,17.20
2017-08-26T19:45:36.891Z,16.17
2017-08-26T19:48:04.505Z,20.80
2017-08-26T19:50:32.085Z,25.60
2017-08-26T19:52:59.682Z,19.97
2017-08-26T19:55:27.337Z,17.73
2017-08-26T19:57:54.923Z,21.90
2017-08-26T20:00:22.507Z,20.17
2017-08-26T20:02:50.158Z,18.77
2017-08-26T20:05:17.746Z,18.17
2017-08-26T20:07:45.329Z,21.97
2017-08-26T20:10:12.933Z,17.87
2017-08-26T20:12:40.555Z,23.90
2017-08-26T20:15:08.182Z,25.50
2017-08-26T20:17:35.774Z,21.83
2017-08-26T20:20:03.349Z,20.90
2017-08-26T20:22:30.968Z,20.53
2017-08-26T20:24:58.531Z,26.23
2017-08-26T20:27:26.158Z,23.47
2017-08-26T20:29:53.717Z,19.40
2017-08-26T20:32:21.334Z,21.60
2017-08-26T20:34:48.905Z,23.03
2017-08-26T20:37:16.481Z,26.50
2017-08-26T20:39:44.074Z,24.50
2017-08-26T20:42:11.645Z,24.30
2017-08-26T20:44:39.231Z,25.07
2017-08-26T20:47:06.799Z,22.73
2017-08-26T20:49:34.417Z,27.17
2017-08-26T20:52:02.005Z,28.40
2017-08-26T20:54:29.594Z,24.40
2017-08-26T20:56:57.162Z,23.37
2017-08-26T20:59:24.759Z,20.93
2017-08-26T21:01:52.406Z,24.40
2017-08-26T21:04:19.986Z,25.40
2017-08-26T21:06:47.549Z,20.40
2017-08-26T21:09:15.145Z,27.00
2017-08-26T21:11:42.745Z,26.37
2017-08-26T21:14:10.325Z,27.50
2017-08-26T21:16:37.914Z,21.97
2017-08-26T21:19:05.514Z,22.93
2017-08-26T21:21:33.117Z,23.87
2017-08-26T21:24:00.746Z,23.30
2017-08-26T21:26:28.305Z,26.00
2017-08-26T21:28:55.922Z,24.37
2017-08-26T21:31:23.509Z,26.30
2017-08-26T21:33:51.078Z,21.33
2017-08-26T21:36:18.697Z,24.40
2017-08-26T21:38:46.279Z,24.27
2017-08-26T21:41:13.885Z,34.10
2017-08-26T21:43:41.458Z,24.73
2017-08-26T21:46:09.054Z,23.90
2017-08-26T21:48:36.626Z,23.90
2017-08-26T21:51:04.230Z,26.87
2017-08-26T21:53:31.822Z,25.20
2017-08-26T21:55:59.398Z,23.27
2017-08-26T21:58:27.745Z,24.07
2017-08-26T22:00:55.318Z,23.60
2017-08-26T22:03:22.908Z,25.97
2017-08-26T22:05:51.253Z,26.33
2017-08-26T22:08:18.845Z,28.10
2017-08-26T22:10:46.436Z,27.13
2017-08-26T22:13:14.029Z,26.97
2017-08-26T22:15:41.604Z,30.57
2017-08-26T22:18:09.226Z,26.50
2017-08-26T22:20:36.818Z,30.53
2017-08-26T22:23:04.344Z,23.50
2017-08-26T22:25:31.933Z,25.00
2017-08-26T22:27:59.494Z,32.60
2017-08-26T22:30:27.076Z,26.57
2017-08-26T22:32:54.643Z,26.83
2017-08-26T22:35:22.310Z,25.67
2017-08-26T22:37:49.905Z,27.67
2017-08-26T22:40:17.483Z,25.13
2017-08-26T22:42:45.072Z,29.47
2017-08-26T22:45:12.640Z,26.57
2017-08-26T22:47:40.206Z,32.13
2017-08-26T22:50:07.783Z,25.27
2017-08-26T22:52:36.146Z,27.20
2017-08-26T22:55:03.703Z,27.10
2017-08-26T22:57:31.286Z,27.10
2017-08-26T22:59:58.853Z,30.97
2017-08-26T23:02:26.420Z,27.30
2017-08-26T23:04:54.005Z,28.37
2017-08-26T23:07:21.588Z,29.03
2017-08-26T23:09:49.150Z,28.97
2017-08-26T23:12:16.726Z,27.60
2017-08-26T23:14:44.425Z,28.97
2017-08-26T23:17:12.001Z,28.47
2017-08-26T23:19:39.579Z,32.57
2017-08-26T23:22:07.155Z,29.00
2017-08-26T23:24:34.744Z,35.40
2017-08-26T23:27:02.341Z,33.73
2017-08-26T23:29:29.921Z,38.17
2017-08-26T23:31:57.541Z,31.50
2017-08-26T23:34:25.133Z,29.33
2017-08-26T23:36:52.706Z,35.30
2017-08-26T23:39:20.293Z,32.47
2017-08-26T23:41:47.906Z,36.20
2017-08-26T23:44:15.485Z,29.00
2017-08-26T23:46:43.081Z,32.70
2017-08-26T23:49:10.654Z,33.03
2017-08-26T23:51:38.307Z,32.30
2017-08-26T23:54:05.878Z,34.20
2017-08-26T23:56:33.452Z,38.50
2017-08-26T23:59:01.801Z,31.07
